createdAt,value
2023-04-15T00:00:34.150Z,1005.09
2023-04-15T00:02:19.260Z,1005.21
2023-04-15T00:04:04.109Z,1005.16
2023-04-15T00:05:49.140Z,1005.06
2023-04-15T00:07:34.073Z,1005.17
2023-04-15T00:09:19.088Z,1005.06
2023-04-15T00:11:04.103Z,1005.13
2023-04-15T00:12:49.085Z,1005.02
2023-04-15T00:14:34.128Z,1005.09
2023-04-15T00:16:19.180Z,1005.15
2023-04-15T00:18:04.102Z,1005.08
2023-04-15T00:19:49.148Z,1005.04
2023-04-15T00:21:34.131Z,1005.08
2023-04-15T00:23:19.101Z,1005.12
2023-04-15T00:25:04.103Z,1005.09
2023-04-15T00:26:49.168Z,1005.05
2023-04-15T00:28:34.097Z,1005.1
2023-04-15T00:30:19.098Z,1005.09
2023-04-15T00:32:04.156Z,1005.04
2023-04-15T00:33:49.140Z,1005.06
2023-04-15T00:35:34.115Z,1005.1
2023-04-15T00:37:19.214Z,1005.1
2023-04-15T00:39:04.133Z,1005.14
2023-04-15T00:40:49.116Z,1005.06
2023-04-15T00:42:34.182Z,1005.16
2023-04-15T00:44:19.126Z,1005.08
2023-04-15T00:46:04.259Z,1005.2
2023-04-15T00:47:49.263Z,1005.06
2023-04-15T00:49:34.119Z,1005.18
2023-04-15T00:51:19.113Z,1005.1
2023-04-15T00:53:04.216Z,1005.21
2023-04-15T00:54:49.166Z,1005.09
2023-04-15T00:56:34.113Z,1005.16
2023-04-15T00:58:19.177Z,1005.16
2023-04-15T01:00:04.156Z,1005.17
2023-04-15T01:01:49.212Z,1005.21
2023-04-15T01:03:34.374Z,1005.19
2023-04-15T01:05:19.150Z,1005.16
2023-04-15T01:07:04.157Z,1005.11
2023-04-15T01:08:49.253Z,1005.1
2023-04-15T01:10:34.165Z,1005.13
2023-04-15T01:12:19.150Z,1005.14
2023-04-15T01:14:04.225Z,1005.13
2023-04-15T01:15:49.181Z,1005.19
2023-04-15T01:17:34.195Z,1005.13
2023-04-15T01:19:19.205Z,1005.17
2023-04-15T01:21:04.154Z,1005.1
2023-04-15T01:22:49.167Z,1005.16
2023-04-15T01:24:34.286Z,1005.05
2023-04-15T01:26:19.185Z,1005.16
2023-04-15T01:28:04.172Z,1005.13
2023-04-15T01:29:49.225Z,1005.17
2023-04-15T01:31:34.220Z,1005.11
2023-04-15T01:33:19.184Z,1005.16
2023-04-15T01:35:04.212Z,1005.16
2023-04-15T01:36:49.195Z,1005.14
2023-04-15T01:38:34.198Z,1005.04
2023-04-15T01:40:19.315Z,1005.08
2023-04-15T01:42:04.189Z,1005.12
2023-04-15T01:43:49.510Z,1005.1
2023-04-15T01:45:34.241Z,1005.14
2023-04-15T01:47:19.536Z,1005.1
2023-04-15T01:49:04.181Z,1005.17
2023-04-15T01:50:49.266Z,1005.18
2023-04-15T01:52:34.226Z,1005.12
2023-04-15T01:54:19.192Z,1005.05
2023-04-15T01:56:04.316Z,1005.08
2023-04-15T01:57:49.233Z,1005.02
2023-04-15T01:59:34.228Z,1005.13
2023-04-15T02:01:19.319Z,1005.11
2023-04-15T02:03:04.304Z,1005.15
2023-04-15T02:04:49.248Z,1005.07
2023-04-15T02:06:34.284Z,1005.1
2023-04-15T02:08:19.233Z,1005.18
2023-04-15T02:10:04.243Z,1005.19
2023-04-15T02:11:49.323Z,1005.09
2023-04-15T02:13:34.549Z,1005.11
2023-04-15T02:15:19.236Z,1005.23
2023-04-15T02:17:04.581Z,1005.19
2023-04-15T02:18:49.563Z,1005.15
2023-04-15T02:20:34.255Z,1005.15
2023-04-15T02:22:19.330Z,1005.21
2023-04-15T02:24:04.263Z,1005.21
2023-04-15T02:25:53.142Z,1005.18
2023-04-15T02:27:34.632Z,1005.24
2023-04-15T02:29:19.260Z,1005.19
2023-04-15T02:31:04.269Z,1005.25
2023-04-15T02:32:49.372Z,1005.27
2023-04-15T02:34:34.301Z,1005.28
2023-04-15T02:36:19.272Z,1005.28
2023-04-15T02:38:04.339Z,1005.28
2023-04-15T02:39:49.308Z,1005.31
2023-04-15T02:41:34.286Z,1005.33
2023-04-15T02:43:19.335Z,1005.34
2023-04-15T02:45:04.302Z,1005.41
2023-04-15T02:46:49.306Z,1005.37
2023-04-15T02:48:34.342Z,1005.41
2023-04-15T02:50:19.321Z,1005.31
2023-04-15T02:52:04.301Z,1005.39
2023-04-15T02:53:49.311Z,1005.31
2023-04-15T02:55:34.314Z,1005.35
2023-04-15T02:57:19.314Z,1005.34
2023-04-15T02:59:04.517Z,1005.34
2023-04-15T03:00:49.583Z,1005.35
2023-04-15T03:02:34.458Z,1005.46
2023-04-15T03:04:19.424Z,1005.46
2023-04-15T03:06:04.311Z,1005.53
2023-04-15T03:07:49.332Z,1005.54
2023-04-15T03:09:34.366Z,1005.56
2023-04-15T03:11:19.305Z,1005.54
2023-04-15T03:13:04.323Z,1005.5
2023-04-15T03:14:49.701Z,1005.65
2023-04-15T03:16:34.338Z,1005.68
2023-04-15T03:18:19.339Z,1005.67
2023-04-15T03:20:04.400Z,1005.65
2023-04-15T03:21:49.332Z,1005.71
2023-04-15T03:23:34.357Z,1005.69
2023-04-15T03:25:19.358Z,1005.64
2023-04-15T03:27:04.336Z,1005.63
2023-04-15T03:28:49.367Z,1005.66
2023-04-15T03:30:34.395Z,1005.62
2023-04-15T03:32:19.705Z,1005.7
2023-04-15T03:34:04.370Z,1005.68
2023-04-15T03:35:49.405Z,1005.74
2023-04-15T03:37:34.345Z,1005.73
2023-04-15T03:39:19.399Z,1005.7
2023-04-15T03:41:04.369Z,1005.72
2023-04-15T03:42:49.377Z,1005.79
2023-04-15T03:44:34.399Z,1005.77
2023-04-15T03:46:19.466Z,1005.76
2023-04-15T03:48:16.381Z,1005.74
2023-04-15T03:49:49.365Z,1005.8
2023-04-15T03:51:34.432Z,1005.83
2023-04-15T03:53:19.386Z,1005.91
2023-04-15T03:55:04.375Z,1005.82
2023-04-15T03:56:49.442Z,1005.91
2023-04-15T03:58:34.679Z,1005.9
2023-04-15T04:00:19.678Z,1005.92
2023-04-15T04:02:04.467Z,1005.91
2023-04-15T04:03:49.502Z,1005.96
2023-04-15T04:05:34.377Z,1005.93
2023-04-15T04:07:19.446Z,1005.98
2023-04-15T04:09:04.402Z,1005.95
2023-04-15T04:10:49.423Z,1005.98
2023-04-15T04:12:34.430Z,1006.08
2023-04-15T04:14:19.395Z,1006.05
2023-04-15T04:16:04.468Z,1006.17
2023-04-15T04:17:49.852Z,1006.13
2023-04-15T04:19:34.405Z,1006.07
2023-04-15T04:21:19.422Z,1006.06
2023-04-15T04:23:04.782Z,1006.12
2023-04-15T04:24:49.425Z,1006.14
2023-04-15T04:26:34.426Z,1006.05
2023-04-15T04:28:19.526Z,1006.13
2023-04-15T04:30:04.445Z,1006.12
2023-04-15T04:31:49.758Z,1006.14
2023-04-15T04:33:34.889Z,1006.15
2023-04-15T04:35:19.435Z,1006.19
2023-04-15T04:37:04.737Z,1006.2
2023-04-15T04:38:49.478Z,1006.21
2023-04-15T04:40:34.430Z,1006.31
2023-04-15T04:42:19.438Z,1006.29
2023-04-15T04:44:04.515Z,1006.22
2023-04-15T04:45:49.455Z,1006.29
2023-04-15T04:47:34.515Z,1006.33
2023-04-15T04:49:19.492Z,1006.32
2023-04-15T04:51:04.450Z,1006.32
2023-04-15T04:52:49.484Z,1006.28
2023-04-15T04:54:34.581Z,1006.29
2023-04-15T04:56:19.521Z,1006.29
2023-04-15T04:58:04.769Z,1006.4
2023-04-15T04:59:49.500Z,1006.3
2023-04-15T05:01:34.590Z,1006.41
2023-04-15T05:03:19.678Z,1006.41
2023-04-15T05:05:04.565Z,1006.48
2023-04-15T05:06:49.809Z,1006.43
2023-04-15T05:08:34.470Z,1006.54
2023-04-15T05:10:19.526Z,1006.51
2023-04-15T05:12:04.496Z,1006.47
2023-04-15T05:13:49.508Z,1006.46
2023-04-15T05:15:34.593Z,1006.55
2023-04-15T05:17:19.487Z,1006.55
2023-04-15T05:19:04.504Z,1006.58
2023-04-15T05:20:49.884Z,1006.56
2023-04-15T05:22:34.518Z,1006.56
2023-04-15T05:24:19.522Z,1006.61
2023-04-15T05:26:04.582Z,1006.6
2023-04-15T05:27:49.523Z,1006.66
2023-04-15T05:29:34.550Z,1006.73
2023-04-15T05:31:19.584Z,1006.73
2023-04-15T05:33:04.646Z,1006.7
2023-04-15T05:34:49.535Z,1006.75
2023-04-15T05:36:34.556Z,1006.81
2023-04-15T05:38:19.732Z,1006.8
2023-04-15T05:40:04.520Z,1006.83
2023-04-15T05:41:49.589Z,1006.89
2023-04-15T05:43:34.537Z,1006.87
2023-04-15T05:45:19.559Z,1006.83
2023-04-15T05:47:04.612Z,1006.83
2023-04-15T05:48:49.553Z,1006.94
2023-04-15T05:50:34.559Z,1007.01
2023-04-15T05:52:19.911Z,1007.01
2023-04-15T05:54:04.573Z,1007
2023-04-15T05:55:49.574Z,1006.97
2023-04-15T05:57:34.882Z,1007.04
2023-04-15T05:59:19.572Z,1007.09
2023-04-15T06:01:04.569Z,1007.07
2023-04-15T06:02:49.642Z,1007.09
2023-04-15T06:04:34.703Z,1007.07
2023-04-15T06:06:19.571Z,1007.2
2023-04-15T06:08:04.630Z,1007.3
2023-04-15T06:09:49.598Z,1007.15
2023-04-15T06:11:34.902Z,1007.2
2023-04-15T06:13:19.598Z,1007.24
2023-04-15T06:15:04.566Z,1007.24
2023-04-15T06:16:49.561Z,1007.29
2023-04-15T06:18:34.605Z,1007.32
2023-04-15T06:20:19.909Z,1007.37
2023-04-15T06:22:04.919Z,1007.39
2023-04-15T06:23:49.679Z,1007.34
2023-04-15T06:25:34.595Z,1007.43
2023-04-15T06:27:19.599Z,1007.46
2023-04-15T06:29:04.949Z,1007.4
2023-04-15T06:30:49.600Z,1007.5
2023-04-15T06:32:34.621Z,1007.5
2023-04-15T06:34:19.689Z,1007.53
2023-04-15T06:36:04.644Z,1007.6
2023-04-15T06:37:49.924Z,1007.54
2023-04-15T06:39:34.694Z,1007.54
2023-04-15T06:41:19.910Z,1007.55
2023-04-15T06:43:04.612Z,1007.63
2023-04-15T06:44:50.316Z,1007.64
2023-04-15T06:46:34.645Z,1007.67
2023-04-15T06:48:19.648Z,1007.76
2023-04-15T06:50:04.653Z,1007.61
2023-04-15T06:51:49.966Z,1007.66
2023-04-15T06:53:34.644Z,1007.69
2023-04-15T06:55:19.761Z,1007.8
2023-04-15T06:57:04.653Z,1007.67
2023-04-15T06:58:49.640Z,1007.71
2023-04-15T07:00:34.669Z,1007.88
2023-04-15T07:02:19.704Z,1007.8
2023-04-15T07:04:04.684Z,1007.81
2023-04-15T07:05:49.965Z,1007.81
2023-04-15T07:07:34.667Z,1007.86
2023-04-15T07:09:19.650Z,1007.85
2023-04-15T07:11:04.743Z,1007.86
2023-04-15T07:12:49.667Z,1007.9
2023-04-15T07:14:34.655Z,1007.94
2023-04-15T07:16:19.733Z,1007.97
2023-04-15T07:18:04.704Z,1008.03
2023-04-15T07:19:49.669Z,1008.08
2023-04-15T07:21:34.747Z,1008.13
2023-04-15T07:23:19.682Z,1008
2023-04-15T07:25:04.675Z,1008.16
2023-04-15T07:26:49.778Z,1008.15
2023-04-15T07:28:34.664Z,1008.22
2023-04-15T07:30:19.677Z,1008.14
2023-04-15T07:32:04.761Z,1008.26
2023-04-15T07:33:49.685Z,1008.25
2023-04-15T07:35:34.660Z,1008.28
2023-04-15T07:37:19.748Z,1008.19
2023-04-15T07:39:04.695Z,1008.16
2023-04-15T07:40:49.687Z,1008.19
2023-04-15T07:42:34.790Z,1008.21
2023-04-15T07:44:19.742Z,1008.24
2023-04-15T07:46:04.695Z,1008.25
2023-04-15T07:47:49.798Z,1008.32
2023-04-15T07:49:34.724Z,1008.33
2023-04-15T07:51:19.704Z,1008.35
2023-04-15T07:53:04.745Z,1008.3
2023-04-15T07:54:49.697Z,1008.43
2023-04-15T07:56:34.723Z,1008.21
2023-04-15T07:58:19.796Z,1008.36
2023-04-15T08:00:04.712Z,1008.44
2023-04-15T08:01:49.729Z,1008.39
2023-04-15T08:03:34.825Z,1008.33
2023-04-15T08:05:19.845Z,1008.36
2023-04-15T08:07:04.778Z,1008.35
2023-04-15T08:08:49.769Z,1008.47
2023-04-15T08:10:34.726Z,1008.37
2023-04-15T08:12:20.037Z,1008.5
2023-04-15T08:14:04.792Z,1008.59
2023-04-15T08:15:49.808Z,1008.6
2023-04-15T08:17:34.808Z,1008.51
2023-04-15T08:19:19.790Z,1008.58
2023-04-15T08:21:04.755Z,1008.61
2023-04-15T08:22:49.763Z,1008.59
2023-04-15T08:24:34.795Z,1008.67
2023-04-15T08:26:19.796Z,1008.68
2023-04-15T08:28:04.775Z,1008.69
2023-04-15T08:29:49.850Z,1008.64
2023-04-15T08:31:34.840Z,1008.69
2023-04-15T08:33:19.778Z,1008.71
2023-04-15T08:35:04.822Z,1008.77
2023-04-15T08:36:49.824Z,1008.8
2023-04-15T08:38:34.801Z,1008.81
2023-04-15T08:40:19.890Z,1008.7
2023-04-15T08:42:04.794Z,1008.65
2023-04-15T08:43:49.819Z,1008.83
2023-04-15T08:45:34.869Z,1008.8
2023-04-15T08:47:19.835Z,1008.77
2023-04-15T08:49:04.993Z,1008.81
2023-04-15T08:50:49.877Z,1008.93
2023-04-15T08:52:34.820Z,1008.83
2023-04-15T08:54:19.813Z,1008.91
2023-04-15T08:56:04.914Z,1008.95
2023-04-15T08:57:49.818Z,1008.95
2023-04-15T08:59:34.831Z,1008.83
2023-04-15T09:01:19.973Z,1008.94
2023-04-15T09:03:04.930Z,1008.93
2023-04-15T09:04:49.845Z,1009.04
2023-04-15T09:06:34.860Z,1008.97
2023-04-15T09:08:19.866Z,1009.05
2023-04-15T09:10:04.914Z,1009.04
2023-04-15T09:11:49.856Z,1009.07
2023-04-15T09:13:34.859Z,1008.95
2023-04-15T09:15:19.855Z,1009.09
2023-04-15T09:17:05.300Z,1009.15
2023-04-15T09:18:49.822Z,1009.11
2023-04-15T09:20:34.823Z,1009.07
2023-04-15T09:22:19.916Z,1009.17
2023-04-15T09:24:04.922Z,1009.15
2023-04-15T09:25:49.863Z,1009.18
2023-04-15T09:27:35.202Z,1009.18
2023-04-15T09:29:19.834Z,1009.24
2023-04-15T09:31:04.947Z,1009.3
2023-04-15T09:32:49.995Z,1009.24
2023-04-15T09:34:34.830Z,1009.24
2023-04-15T09:36:19.850Z,1009.22
2023-04-15T09:38:04.935Z,1009.28
2023-04-15T09:39:50.218Z,1009.35
2023-04-15T09:41:35.169Z,1009.39
2023-04-15T09:43:19.903Z,1009.34
2023-04-15T09:45:04.862Z,1009.37
2023-04-15T09:46:50.187Z,1009.4
2023-04-15T09:48:35.220Z,1009.4
2023-04-15T09:50:19.869Z,1009.51
2023-04-15T09:52:05.940Z,1009.42
2023-04-15T09:53:49.909Z,1009.39
2023-04-15T09:55:34.877Z,1009.48
2023-04-15T09:57:19.881Z,1009.44
2023-04-15T09:59:04.917Z,1009.51
2023-04-15T10:00:49.885Z,1009.48
2023-04-15T10:02:35.071Z,1009.62
2023-04-15T10:04:20.048Z,1009.63
2023-04-15T10:06:04.880Z,1009.65
2023-04-15T10:07:49.903Z,1009.7
2023-04-15T10:09:34.950Z,1009.68
2023-04-15T10:11:20.197Z,1009.7
2023-04-15T10:13:04.892Z,1009.78
2023-04-15T10:14:49.992Z,1009.69
2023-04-15T10:16:34.928Z,1009.72
2023-04-15T10:18:19.960Z,1009.75
2023-04-15T10:20:05.017Z,1009.76
2023-04-15T10:21:49.929Z,1009.71
2023-04-15T10:23:34.910Z,1009.81
2023-04-15T10:25:20.040Z,1009.85
2023-04-15T10:27:04.919Z,1009.84
2023-04-15T10:28:50.040Z,1009.82
2023-04-15T10:30:35.064Z,1009.85
2023-04-15T10:32:19.972Z,1009.73
2023-04-15T10:34:04.982Z,1009.82
2023-04-15T10:35:50.090Z,1009.88
2023-04-15T10:37:34.951Z,1009.93
2023-04-15T10:39:19.976Z,1009.94
2023-04-15T10:41:05.027Z,1009.91
2023-04-15T10:42:49.974Z,1009.86
2023-04-15T10:44:34.969Z,1009.96
2023-04-15T10:46:20.093Z,1009.87
2023-04-15T10:48:05.024Z,1009.9
2023-04-15T10:49:50.007Z,1009.86
2023-04-15T10:51:35.062Z,1009.98
2023-04-15T10:53:21.786Z,1009.95
2023-04-15T10:55:04.970Z,1009.94
2023-04-15T10:56:50.093Z,1010.03
2023-04-15T10:58:35.033Z,1010
2023-04-15T11:00:20.000Z,1010.01
2023-04-15T11:02:05.076Z,1010.06
2023-04-15T11:03:50.127Z,1010.02
2023-04-15T11:05:35.300Z,1010.12
2023-04-15T11:07:20.234Z,1010.07
2023-04-15T11:09:05.057Z,1010.14
2023-04-15T11:10:50.018Z,1010.12
2023-04-15T11:12:35.080Z,1010.09
2023-04-15T11:14:20.052Z,1010.1
2023-04-15T11:16:05.024Z,1010.1
2023-04-15T11:17:50.068Z,1010.13
2023-04-15T11:19:35.026Z,1010.16
2023-04-15T11:21:20.038Z,1010.15
2023-04-15T11:23:08.548Z,1010.17
2023-04-15T11:24:50.045Z,1010.17
2023-04-15T11:26:35.028Z,1010.22
2023-04-15T11:28:20.095Z,1010.2
2023-04-15T11:30:05.022Z,1010.28
2023-04-15T11:31:50.102Z,1010.16
2023-04-15T11:33:35.128Z,1010.28
2023-04-15T11:35:20.028Z,1010.34
2023-04-15T11:37:05.064Z,1010.29
2023-04-15T11:38:50.126Z,1010.33
2023-04-15T11:40:35.040Z,1010.37
2023-04-15T11:42:20.055Z,1010.34
2023-04-15T11:44:05.145Z,1010.38
2023-04-15T11:45:50.102Z,1010.51
2023-04-15T11:47:35.377Z,1010.42
2023-04-15T11:49:20.105Z,1010.43
2023-04-15T11:51:05.082Z,1010.41
2023-04-15T11:52:50.068Z,1010.47
2023-04-15T11:54:35.119Z,1010.55
2023-04-15T11:56:20.066Z,1010.52
2023-04-15T11:58:05.384Z,1010.55
2023-04-15T11:59:50.353Z,1010.54
2023-04-15T12:01:35.090Z,1010.6
2023-04-15T12:03:20.211Z,1010.59
2023-04-15T12:05:05.467Z,1010.66
2023-04-15T12:06:50.136Z,1010.67
2023-04-15T12:08:35.097Z,1010.8
2023-04-15T12:10:20.199Z,1010.71
2023-04-15T12:12:05.079Z,1010.77
2023-04-15T12:13:50.128Z,1010.67
2023-04-15T12:15:35.208Z,1010.75
2023-04-15T12:17:20.131Z,1010.77
2023-04-15T12:19:05.106Z,1010.88
2023-04-15T12:20:50.106Z,1010.89
2023-04-15T12:22:35.155Z,1010.85
2023-04-15T12:24:20.111Z,1010.82
2023-04-15T12:26:05.202Z,1010.85
2023-04-15T12:27:50.110Z,1010.94
2023-04-15T12:29:35.122Z,1010.92
2023-04-15T12:31:20.153Z,1010.95
2023-04-15T12:33:05.202Z,1011.07
2023-04-15T12:34:50.177Z,1011.04
2023-04-15T12:36:35.163Z,1011
2023-04-15T12:38:20.126Z,1011.05
2023-04-15T12:40:05.242Z,1011.06
2023-04-15T12:41:50.206Z,1011.02
2023-04-15T12:43:35.144Z,1011.07
2023-04-15T12:45:20.173Z,1011.13
2023-04-15T12:47:05.269Z,1011.08
2023-04-15T12:48:50.135Z,1011.21
2023-04-15T12:50:35.163Z,1011.14
2023-04-15T12:52:20.172Z,1011.28
2023-04-15T12:54:05.317Z,1011.21
2023-04-15T12:55:50.222Z,1011.29
2023-04-15T12:57:35.318Z,1011.26
2023-04-15T12:59:20.192Z,1011.21
2023-04-15T13:01:05.196Z,1011.28
2023-04-15T13:02:50.330Z,1011.44
2023-04-15T13:04:35.237Z,1011.39
2023-04-15T13:06:20.169Z,1011.43
2023-04-15T13:08:05.234Z,1011.5
2023-04-15T13:09:50.192Z,1011.53
2023-04-15T13:11:35.196Z,1011.54
2023-04-15T13:13:20.590Z,1011.58
2023-04-15T13:15:05.779Z,1011.6
2023-04-15T13:16:50.529Z,1011.6
2023-04-15T13:18:35.597Z,1011.54
2023-04-15T13:20:20.237Z,1011.64
2023-04-15T13:22:05.215Z,1011.65
2023-04-15T13:23:50.295Z,1011.78
2023-04-15T13:25:35.210Z,1011.66
2023-04-15T13:27:20.214Z,1011.71
2023-04-15T13:29:05.325Z,1011.63
2023-04-15T13:30:50.229Z,1011.78
2023-04-15T13:32:35.257Z,1011.77
2023-04-15T13:34:20.276Z,1011.8
2023-04-15T13:36:05.514Z,1011.86
2023-04-15T13:37:50.217Z,1011.86
2023-04-15T13:39:35.304Z,1011.77
2023-04-15T13:41:20.253Z,1011.76
2023-04-15T13:43:05.229Z,1011.83
2023-04-15T13:44:50.330Z,1011.87
2023-04-15T13:46:35.262Z,1011.89
2023-04-15T13:48:20.230Z,1011.93
2023-04-15T13:50:05.375Z,1012
2023-04-15T13:51:50.272Z,1012.07
2023-04-15T13:53:38.611Z,1011.95
2023-04-15T13:55:21.901Z,1011.94
2023-04-15T13:57:05.290Z,1012.12
2023-04-15T13:58:50.303Z,1012.16
2023-04-15T14:00:35.316Z,1012.08
2023-04-15T14:02:20.320Z,1012.19
2023-04-15T14:04:05.457Z,1012.13
2023-04-15T14:05:50.356Z,1012.24
2023-04-15T14:07:35.273Z,1012.23
2023-04-15T14:09:20.316Z,1012.14
2023-04-15T14:11:05.363Z,1012.22
2023-04-15T14:12:50.284Z,1012.31
2023-04-15T14:14:35.325Z,1012.23
2023-04-15T14:16:20.389Z,1012.29
2023-04-15T14:18:05.368Z,1012.26
2023-04-15T14:19:50.318Z,1012.28
2023-04-15T14:21:35.625Z,1012.26
2023-04-15T14:23:20.570Z,1012.33
2023-04-15T14:25:05.339Z,1012.31
2023-04-15T14:26:50.669Z,1012.34
2023-04-15T14:28:35.312Z,1012.31
2023-04-15T14:30:20.311Z,1012.44
2023-04-15T14:32:11.223Z,1012.34
2023-04-15T14:33:50.324Z,1012.44
2023-04-15T14:35:35.333Z,1012.45
2023-04-15T14:37:20.364Z,1012.51
2023-04-15T14:39:05.686Z,1012.46
2023-04-15T14:40:50.346Z,1012.51
2023-04-15T14:42:35.350Z,1012.51
2023-04-15T14:44:20.318Z,1012.51
2023-04-15T14:46:05.351Z,1012.54
2023-04-15T14:47:50.647Z,1012.59
2023-04-15T14:49:35.629Z,1012.54
2023-04-15T14:51:20.381Z,1012.63
2023-04-15T14:53:05.378Z,1012.6
2023-04-15T14:54:50.333Z,1012.66
2023-04-15T14:56:35.369Z,1012.64
2023-04-15T14:58:20.350Z,1012.59
2023-04-15T15:00:05.317Z,1012.61
2023-04-15T15:01:50.440Z,1012.67
2023-04-15T15:03:35.608Z,1012.73
2023-04-15T15:05:20.385Z,1012.83
2023-04-15T15:07:05.377Z,1012.74
2023-04-15T15:08:50.419Z,1012.82
2023-04-15T15:10:46.843Z,1012.74
2023-04-15T15:12:20.378Z,1012.83
2023-04-15T15:14:05.429Z,1012.9
2023-04-15T15:15:50.374Z,1012.81
2023-04-15T15:17:35.383Z,1012.95
2023-04-15T15:19:20.432Z,1012.92
2023-04-15T15:21:05.372Z,1012.94
2023-04-15T15:22:50.371Z,1012.98
2023-04-15T15:24:35.479Z,1012.99
2023-04-15T15:26:20.373Z,1013.07
2023-04-15T15:28:05.414Z,1012.95
2023-04-15T15:29:50.421Z,1012.99
2023-04-15T15:31:35.465Z,1013.06
2023-04-15T15:33:20.389Z,1013.03
2023-04-15T15:35:05.446Z,1013.09
2023-04-15T15:36:50.411Z,1013.02
2023-04-15T15:38:35.502Z,1013.07
2023-04-15T15:40:20.441Z,1013.08
2023-04-15T15:42:05.406Z,1013.11
2023-04-15T15:43:50.441Z,1013.19
2023-04-15T15:45:35.423Z,1013.21
2023-04-15T15:47:20.474Z,1013.25
2023-04-15T15:49:05.583Z,1013.24
2023-04-15T15:50:50.481Z,1013.32
2023-04-15T15:52:35.398Z,1013.24
2023-04-15T15:54:20.427Z,1013.27
2023-04-15T15:56:05.465Z,1013.31
2023-04-15T15:57:50.705Z,1013.23
2023-04-15T15:59:35.718Z,1013.34
2023-04-15T16:01:20.553Z,1013.28
2023-04-15T16:03:07.076Z,1013.26
2023-04-15T16:04:50.538Z,1013.36
2023-04-15T16:06:35.577Z,1013.4
2023-04-15T16:08:20.430Z,1013.37
2023-04-15T16:10:05.460Z,1013.45
2023-04-15T16:11:50.531Z,1013.41
2023-04-15T16:13:35.447Z,1013.51
2023-04-15T16:15:20.449Z,1013.51
2023-04-15T16:17:05.551Z,1013.48
2023-04-15T16:18:50.446Z,1013.59
2023-04-15T16:20:35.451Z,1013.58
2023-04-15T16:22:20.566Z,1013.57
2023-04-15T16:24:05.444Z,1013.72
2023-04-15T16:25:50.473Z,1013.57
2023-04-15T16:27:43.490Z,1013.67
2023-04-15T16:29:20.453Z,1013.67
2023-04-15T16:31:05.478Z,1013.62
2023-04-15T16:32:50.607Z,1013.64
2023-04-15T16:34:35.475Z,1013.71
2023-04-15T16:36:20.486Z,1013.71
2023-04-15T16:38:05.563Z,1013.8
2023-04-15T16:39:50.526Z,1013.76
2023-04-15T16:41:35.557Z,1013.74
2023-04-15T16:43:20.539Z,1013.81
2023-04-15T16:45:05.453Z,1013.79
2023-04-15T16:46:50.484Z,1013.89
2023-04-15T16:48:35.539Z,1013.89
2023-04-15T16:50:20.491Z,1013.94
2023-04-15T16:52:05.498Z,1013.94
2023-04-15T16:53:50.872Z,1013.94
2023-04-15T16:55:35.481Z,1014
2023-04-15T16:57:20.505Z,1013.95
2023-04-15T16:59:05.725Z,1013.92
2023-04-15T17:00:50.516Z,1013.94
2023-04-15T17:02:35.589Z,1014.11
2023-04-15T17:04:20.576Z,1014.02
2023-04-15T17:06:05.590Z,1013.98
2023-04-15T17:07:50.518Z,1014.01
2023-04-15T17:09:35.588Z,1014.07
2023-04-15T17:11:20.560Z,1013.97
2023-04-15T17:16:35.512Z,1014.22
2023-04-15T17:18:20.663Z,1014.18
2023-04-15T17:20:05.551Z,1014.18
2023-04-15T17:21:50.547Z,1014.18
2023-04-15T17:23:35.896Z,1014.24
2023-04-15T17:25:20.563Z,1014.21
2023-04-15T17:27:05.552Z,1014.22
2023-04-15T17:28:50.576Z,1014.26
2023-04-15T17:30:35.549Z,1014.3
2023-04-15T17:32:20.623Z,1014.29
2023-04-15T17:34:08.700Z,1014.3
2023-04-15T17:35:50.540Z,1014.28
2023-04-15T17:37:35.594Z,1014.36
2023-04-15T17:39:20.598Z,1014.3
2023-04-15T17:41:05.595Z,1014.34
2023-04-15T17:42:50.625Z,1014.37
2023-04-15T17:44:35.668Z,1014.37
2023-04-15T17:46:20.590Z,1014.47
2023-04-15T17:48:05.649Z,1014.6
2023-04-15T17:49:50.645Z,1014.46
2023-04-15T17:51:35.577Z,1014.61
2023-04-15T17:53:20.570Z,1014.47
2023-04-15T17:55:05.587Z,1014.58
2023-04-15T17:56:50.630Z,1014.58
2023-04-15T17:58:35.580Z,1014.62
2023-04-15T18:00:20.627Z,1014.57
2023-04-15T18:02:05.625Z,1014.68
2023-04-15T18:03:50.797Z,1014.7
2023-04-15T18:05:35.619Z,1014.76
2023-04-15T18:07:20.591Z,1014.74
2023-04-15T18:09:05.814Z,1014.73
2023-04-15T18:10:50.632Z,1014.76
2023-04-15T18:12:35.623Z,1014.81
2023-04-15T18:14:33.352Z,1014.82
2023-04-15T18:16:05.684Z,1014.8
2023-04-15T18:17:50.620Z,1014.76
2023-04-15T18:19:35.665Z,1014.88
2023-04-15T18:21:20.640Z,1014.8
2023-04-15T18:23:05.664Z,1014.93
2023-04-15T18:24:50.650Z,1014.87
2023-04-15T18:26:35.612Z,1014.94
2023-04-15T18:28:20.649Z,1014.98
2023-04-15T18:30:05.673Z,1014.95
2023-04-15T18:31:50.714Z,1015.01
2023-04-15T18:33:35.633Z,1015.03
2023-04-15T18:35:20.681Z,1015.08
2023-04-15T18:37:05.967Z,1015.14
2023-04-15T18:38:50.619Z,1015.07
2023-04-15T18:40:35.690Z,1015.09
2023-04-15T18:42:20.647Z,1015.09
2023-04-15T18:44:05.992Z,1015.19
2023-04-15T18:45:50.711Z,1015.13
2023-04-15T18:47:35.699Z,1015.26
2023-04-15T18:49:20.684Z,1015.26
2023-04-15T18:51:05.656Z,1015.21
2023-04-15T18:52:50.668Z,1015.29
2023-04-15T18:54:35.660Z,1015.31
2023-04-15T18:56:20.698Z,1015.31
2023-04-15T18:58:06.303Z,1015.33
2023-04-15T18:59:50.692Z,1015.32
2023-04-15T19:01:35.708Z,1015.41
2023-04-15T19:03:20.671Z,1015.46
2023-04-15T19:05:05.687Z,1015.48
2023-04-15T19:06:50.702Z,1015.54
2023-04-15T19:08:35.672Z,1015.53
2023-04-15T19:10:20.700Z,1015.55
2023-04-15T19:12:05.694Z,1015.52
2023-04-15T19:13:50.690Z,1015.56
2023-04-15T19:15:35.739Z,1015.72
2023-04-15T19:17:20.763Z,1015.7
2023-04-15T19:19:06.073Z,1015.7
2023-04-15T19:20:50.684Z,1015.69
2023-04-15T19:22:35.721Z,1015.74
2023-04-15T19:24:20.731Z,1015.8
2023-04-15T19:26:05.719Z,1015.77
2023-04-15T19:27:50.752Z,1015.82
2023-04-15T19:29:35.734Z,1015.96
2023-04-15T19:31:20.831Z,1015.78
2023-04-15T19:33:05.738Z,1015.9
2023-04-15T19:34:50.731Z,1015.88
2023-04-15T19:36:35.746Z,1015.93
2023-04-15T19:38:20.789Z,1015.84
2023-04-15T19:40:05.744Z,1015.89
2023-04-15T19:41:50.764Z,1015.93
2023-04-15T19:43:35.740Z,1015.95
2023-04-15T19:45:20.762Z,1015.9
2023-04-15T19:47:05.776Z,1015.99
2023-04-15T19:48:50.794Z,1015.99
2023-04-15T19:50:35.739Z,1016.05
2023-04-15T19:52:20.760Z,1015.99
2023-04-15T19:54:05.775Z,1015.99
2023-04-15T19:55:50.741Z,1016.04
2023-04-15T19:57:35.768Z,1016.07
2023-04-15T19:59:20.826Z,1016.06
2023-04-15T20:01:05.784Z,1016.23
2023-04-15T20:02:50.909Z,1016.2
2023-04-15T20:04:35.829Z,1016.14
2023-04-15T20:06:20.756Z,1016.2
2023-04-15T20:08:06.088Z,1016.3
2023-04-15T20:09:50.791Z,1016.17
2023-04-15T20:12:05.407Z,1016.16
2023-04-15T20:13:20.792Z,1016.16
2023-04-15T20:15:05.816Z,1016.23
2023-04-15T20:16:50.768Z,1016.14
2023-04-15T20:18:35.817Z,1016.19
2023-04-15T20:20:20.903Z,1016.24
2023-04-15T20:22:05.775Z,1016.17
2023-04-15T20:23:50.788Z,1016.29
2023-04-15T20:25:35.832Z,1016.26
2023-04-15T20:27:20.781Z,1016.26
2023-04-15T20:29:06.086Z,1016.23
2023-04-15T20:30:50.825Z,1016.33
2023-04-15T20:32:36.335Z,1016.23
2023-04-15T20:34:20.801Z,1016.19
2023-04-15T20:36:05.860Z,1016.29
2023-04-15T20:37:50.789Z,1016.33
2023-04-15T20:39:35.806Z,1016.25
2023-04-15T20:41:20.841Z,1016.23
2023-04-15T20:43:05.788Z,1016.3
2023-04-15T20:44:50.811Z,1016.37
2023-04-15T20:46:35.885Z,1016.33
2023-04-15T20:48:20.798Z,1016.41
2023-04-15T20:50:05.820Z,1016.36
2023-04-15T20:51:50.860Z,1016.34
2023-04-15T20:53:35.831Z,1016.32
2023-04-15T20:55:20.831Z,1016.34
2023-04-15T20:57:05.872Z,1016.4
2023-04-15T20:58:50.817Z,1016.36
2023-04-15T21:00:35.860Z,1016.38
2023-04-15T21:02:20.969Z,1016.34
2023-04-15T21:04:05.880Z,1016.34
2023-04-15T21:05:50.850Z,1016.36
2023-04-15T21:07:35.890Z,1016.28
2023-04-15T21:09:20.873Z,1016.27
2023-04-15T21:11:05.856Z,1016.35
2023-04-15T21:12:50.908Z,1016.42
2023-04-15T21:14:35.869Z,1016.52
2023-04-15T21:16:20.880Z,1016.44
2023-04-15T21:18:05.855Z,1016.45